Time;durP1;ratioP1;P1;durP2;ratioP2;P2;SDS_P1;SDS_P2;PMS_P1;PMS_P2;Temp;Humidity;BMP_temperature;BMP_pressure;BME280_temperature;BME280_humidity;BME280_pressure;Samples;Min_cycle;Max_cycle;Signal;HPM_P1;HPM_P2
2021/06/04 00:00:36;;;;;;;2.10;1.00;;;22.10;74.70;22.00;99926.00;;;;341223;28;91956;-87
2021/06/04 00:00:48;;;;;;;3.25;1.17;;;22.10;74.90;21.70;99928.00;;;;341375;28;94747;-87
2021/06/04 00:01:21;;;;;;;3.38;1.20;;;22.10;75.10;21.60;99923.00;;;;339617;28;91505;-87
2021/06/04 00:01:33;;;;;;;3.88;1.35;;;22.10;75.10;21.70;99924.00;;;;340947;28;93497;-86
2021/06/04 00:01:45;;;;;;;3.67;1.10;;;22.00;74.90;21.80;99924.00;;;;341265;28;91086;-87
2021/06/04 00:01:57;;;;;;;3.00;0.90;;;22.00;75.00;21.80;99915.00;;;;344131;28;93882;-87
2021/06/04 00:02:09;;;;;;;1.90;1.00;;;22.00;74.80;21.90;99920.00;;;;342631;28;91930;-86
2021/06/04 00:02:22;;;;;;;2.60;1.30;;;22.00;75.20;21.90;99916.00;;;;341255;28;94757;-86
2021/06/04 00:02:33;;;;;;;2.72;1.23;;;22.00;75.10;22.00;99926.00;;;;341328;28;92167;-87
2021/06/04 00:02:45;;;;;;;2.50;1.20;;;22.00;75.00;21.90;99917.00;;;;341393;28;93433;-87
2021/06/04 00:03:13;;;;;;;2.33;1.05;;;22.00;75.20;22.00;99916.00;;;;345244;28;91923;-87
2021/06/04 00:03:25;;;;;;;4.18;1.33;;;22.00;75.00;21.80;99922.00;;;;344074;28;94778;-86
2021/06/04 00:03:37;;;;;;;2.60;1.15;;;22.00;75.00;22.00;99922.00;;;;343910;28;91253;-86
2021/06/04 00:03:49;;;;;;;2.42;1.08;;;22.00;74.80;22.00;99921.00;;;;342880;28;93570;-87
2021/06/04 00:04:01;;;;;;;2.70;1.10;;;22.10;74.90;22.10;99918.00;;;;343230;28;92455;-86
2021/06/04 00:04:14;;;;;;;3.78;1.30;;;22.10;74.80;22.10;99918.00;;;;341596;28;94844;-87
2021/06/04 00:04:25;;;;;;;2.92;1.33;;;22.10;75.00;22.10;99910.00;;;;342454;28;91947;-86
2021/06/04 00:04:37;;;;;;;3.85;1.42;;;22.10;75.00;22.10;99914.00;;;;339937;28;94600;-87
2021/06/04 00:04:49;;;;;;;3.60;1.23;;;22.10;75.00;22.10;99917.00;;;;338530;28;91976;-87
2021/06/04 00:05:01;;;;;;;2.80;0.95;;;22.10;75.00;22.10;99912.00;;;;340202;28;93316;-87
2021/06/04 00:05:13;;;;;;;2.22;0.80;;;22.10;74.90;22.00;99916.00;;;;341135;28;92148;-87
2021/06/04 00:05:30;;;;;;;3.65;1.00;;;22.10;75.10;22.10;99910.00;;;;339888;28;96296;-87
2021/06/04 00:05:45;;;;;;;6.15;1.40;;;22.10;75.00;22.00;99909.00;;;;339877;28;91283;-87
2021/06/04 00:05:57;;;;;;;4.18;1.30;;;22.10;75.30;22.10;99913.00;;;;341466;28;92393;-87
2021/06/04 00:06:11;;;;;;;2.53;1.13;;;22.10;75.20;22.10;99917.00;;;;341218;28;91867;-87
2021/06/04 00:06:23;;;;;;;2.45;1.20;;;22.10;75.20;22.10;99921.00;;;;342614;28;94208;-87
2021/06/04 00:06:35;;;;;;;2.78;1.20;;;22.10;75.20;22.10;99912.00;;;;342621;28;91993;-87
2021/06/04 00:06:47;;;;;;;2.25;1.10;;;22.10;75.00;22.10;99917.00;;;;344062;28;94276;-87
2021/06/04 00:06:59;;;;;;;2.60;1.25;;;22.10;74.80;22.00;99914.00;;;;343146;28;91913;-86
2021/06/04 00:07:11;;;;;;;3.05;1.55;;;22.10;75.00;22.10;99918.00;;;;343656;28;94409;-86
2021/06/04 00:07:23;;;;;;;4.50;1.48;;;22.10;75.00;22.10;99910.00;;;;339951;28;91930;-87
2021/06/04 00:07:35;;;;;;;5.45;1.20;;;22.10;74.80;22.10;99913.00;;;;344152;28;93453;-86
2021/06/04 00:07:47;;;;;;;5.13;1.00;;;22.20;74.90;22.10;99911.00;;;;341312;28;90321;-87
2021/06/04 00:07:59;;;;;;;2.33;1.08;;;22.10;74.90;22.10;99913.00;;;;339828;28;93510;-86
2021/06/04 00:08:11;;;;;;;2.63;1.13;;;22.20;74.90;22.00;99916.00;;;;341234;28;91896;-87
2021/06/04 00:08:23;;;;;;;2.40;1.23;;;22.10;74.80;21.90;99906.00;;;;341038;28;95538;-86
2021/06/04 00:08:36;;;;;;;2.67;1.08;;;22.10;75.10;21.80;99911.00;;;;341253;28;91958;-87
2021/06/04 00:08:49;;;;;;;2.90;1.33;;;22.10;75.00;21.90;99914.00;;;;342680;28;96042;-86
2021/06/04 00:09:02;;;;;;;3.58;1.77;;;22.10;75.00;21.80;99911.00;;;;343883;28;91876;-86
2021/06/04 00:09:14;;;;;;;2.50;1.55;;;22.10;75.10;21.90;99915.00;;;;341488;28;93985;-86
2021/06/04 00:09:26;;;;;;;2.38;1.50;;;22.00;75.10;22.00;99920.00;;;;342604;28;92173;-87
2021/06/04 00:09:38;;;;;;;2.58;1.42;;;22.10;75.00;22.00;99910.00;;;;342665;28;94326;-87
2021/06/04 00:09:50;;;;;;;2.25;1.30;;;22.10;75.20;22.00;99910.00;;;;339967;28;91498;-87
2021/06/04 00:10:08;;;;;;;3.50;1.02;;;22.10;75.10;22.00;99919.00;;;;340397;28;96381;-87
2021/06/04 00:10:27;;;;;;;5.28;1.20;;;22.10;75.30;22.10;99918.00;;;;345105;28;92355;-87
2021/06/04 00:10:43;;;;;;;3.83;1.02;;;22.10;75.20;22.00;99916.00;;;;341316;28;93983;-86
2021/06/04 00:11:02;;;;;;;3.90;1.00;;;22.10;75.30;21.80;99916.00;;;;342419;28;92042;-87
2021/06/04 00:11:34;;;;;;;3.13;1.23;;;22.10;75.20;21.90;99919.00;;;;341294;28;97481;-87
2021/06/04 00:11:49;;;;;;;5.65;1.13;;;22.10;75.20;21.80;99917.00;;;;339927;28;91004;-87
2021/06/04 00:12:02;;;;;;;4.85;1.15;;;22.10;75.30;21.90;99912.00;;;;341154;28;94498;-87
2021/06/04 00:12:14;;;;;;;3.58;1.00;;;22.00;75.20;21.80;99922.00;;;;341184;28;91978;-87
2021/06/04 00:12:26;;;;;;;2.30;1.17;;;22.10;75.20;21.80;99920.00;;;;342767;28;94473;-86
2021/06/04 00:12:37;;;;;;;1.88;1.10;;;22.10;75.20;21.70;99922.00;;;;341192;28;91349;-86
2021/06/04 00:12:49;;;;;;;2.25;1.17;;;22.00;75.40;21.70;99918.00;;;;340050;28;95128;-87
2021/06/04 00:13:48;;;;;;;2.50;1.38;;;22.00;75.40;21.70;99926.00;;;;340508;28;92094;-87
2021/06/04 00:14:16;;;;;;;2.58;1.27;;;22.00;75.30;21.70;99924.00;;;;339871;28;93385;-87
2021/06/04 00:14:35;;;;;;;2.40;1.00;;;22.00;75.40;21.80;99924.00;;;;339831;28;92139;-87
2021/06/04 00:14:46;;;;;;;2.47;1.25;;;22.00;75.40;21.60;99926.00;;;;337299;28;94825;-87
2021/06/04 00:14:58;;;;;;;2.30;1.20;;;22.00;75.60;21.50;99923.00;;;;340933;28;92328;-87
2021/06/04 00:15:16;;;;;;;3.20;1.23;;;22.00;75.60;21.60;99918.00;;;;339946;28;94683;-86
2021/06/04 00:15:28;;;;;;;3.22;1.20;;;21.90;75.60;21.80;99921.00;;;;341144;28;91944;-87
2021/06/04 00:15:40;;;;;;;2.45;1.13;;;22.00;75.50;21.70;99923.00;;;;340936;28;94488;-86
2021/06/04 00:15:59;;;;;;;3.05;1.27;;;21.90;75.50;21.70;99927.00;;;;335908;28;91174;-87
2021/06/04 00:16:20;;;;;;;4.05;1.27;;;21.90;75.70;21.60;99928.00;;;;338170;28;93545;-87
2021/06/04 00:16:45;;;;;;;3.63;0.95;;;21.90;75.60;21.60;99927.00;;;;338344;28;92069;-87
2021/06/04 00:17:01;;;;;;;3.20;1.20;;;21.90;75.80;21.70;99927.00;;;;338610;28;92402;-87
2021/06/04 00:17:18;;;;;;;2.40;1.30;;;21.90;75.60;21.70;99929.00;;;;338429;28;92079;-86
2021/06/04 00:17:30;;;;;;;2.03;1.30;;;21.90;75.80;21.70;99925.00;;;;339936;28;94410;-86
2021/06/04 00:17:43;;;;;;;2.72;1.00;;;21.90;75.80;21.70;99924.00;;;;341128;28;92035;-87
2021/06/04 00:17:54;;;;;;;2.92;1.17;;;21.90;76.00;21.60;99926.00;;;;341245;28;97606;-87
2021/06/04 00:18:06;;;;;;;2.35;1.20;;;21.90;75.90;21.70;99924.00;;;;341158;28;92224;-87
2021/06/04 00:18:18;;;;;;;2.67;1.25;;;21.90;75.90;21.70;99922.00;;;;340012;28;93885;-87
2021/06/04 00:18:30;;;;;;;3.35;1.15;;;21.90;75.90;21.70;99929.00;;;;339819;28;91098;-87
2021/06/04 00:18:42;;;;;;;5.05;1.30;;;21.80;76.10;21.70;99925.00;;;;337291;28;92949;-86
2021/06/04 00:18:54;;;;;;;5.38;1.23;;;21.80;76.00;21.70;99927.00;;;;339703;28;92208;-87
2021/06/04 00:19:13;;;;;;;4.22;1.10;;;21.80;75.80;21.90;99927.00;;;;338014;28;94284;-87
2021/06/04 00:19:28;;;;;;;2.78;1.02;;;21.80;75.70;21.60;99926.00;;;;339813;28;91947;-87
2021/06/04 00:19:40;;;;;;;1.90;1.10;;;21.80;76.20;21.50;99930.00;;;;341049;28;93160;-87
2021/06/04 00:19:52;;;;;;;2.53;1.35;;;21.80;76.10;21.50;99929.00;;;;338566;28;91100;-87
2021/06/04 00:20:14;;;;;;;2.40;1.33;;;21.80;76.10;21.70;99931.00;;;;338547;28;93017;-87
2021/06/04 00:20:26;;;;;;;2.22;1.20;;;21.80;76.10;21.60;99929.00;;;;341112;28;91887;-87
2021/06/04 00:20:38;;;;;;;2.08;1.10;;;21.80;76.20;21.60;99931.00;;;;341257;28;94645;-87
2021/06/04 00:20:50;;;;;;;2.08;1.20;;;21.80;76.10;21.40;99932.00;;;;342281;28;91475;-86
2021/06/04 00:21:03;;;;;;;2.25;1.25;;;21.80;76.30;21.60;99932.00;;;;339987;28;92546;-87
2021/06/04 00:21:24;;;;;;;2.45;1.20;;;21.80;76.30;21.50;99930.00;;;;338418;28;92002;-87
2021/06/04 00:21:49;;;;;;;3.40;1.20;;;21.80;76.60;21.50;99937.00;;;;341198;28;94626;-87
2021/06/04 00:22:18;;;;;;;1.92;1.00;;;21.80;76.40;21.50;99928.00;;;;339439;28;91219;-87
2021/06/04 00:22:30;;;;;;;4.50;1.65;;;21.70;76.50;21.60;99934.00;;;;339810;28;92970;-87
2021/06/04 00:22:41;;;;;;;2.85;1.40;;;21.70;76.40;21.50;99921.00;;;;339666;28;91943;-87
2021/06/04 00:22:53;;;;;;;3.65;0.98;;;21.70;76.40;21.50;99926.00;;;;338663;28;93944;-87
2021/06/04 00:23:06;;;;;;;3.78;1.30;;;21.70;76.60;21.50;99924.00;;;;337343;28;91144;-87
2021/06/04 00:23:18;;;;;;;2.35;1.40;;;21.70;76.60;21.60;99929.00;;;;338640;28;94774;-87
2021/06/04 00:23:30;;;;;;;2.25;1.42;;;21.80;76.50;21.60;99930.00;;;;338439;28;91176;-87
2021/06/04 00:23:42;;;;;;;2.65;1.55;;;21.80;76.50;21.50;99931.00;;;;339945;28;92855;-87
2021/06/04 00:23:57;;;;;;;2.53;1.40;;;21.80;76.50;21.70;99932.00;;;;338503;28;91865;-87
2021/06/04 00:24:09;;;;;;;3.20;1.48;;;21.80;76.30;21.70;99934.00;;;;339945;28;96658;-86
2021/06/04 00:24:21;;;;;;;3.28;1.40;;;21.80;76.30;21.70;99940.00;;;;338354;28;92152;-87
2021/06/04 00:24:37;;;;;;;2.95;1.08;;;21.80;76.40;21.60;99929.00;;;;341320;28;95058;-87
2021/06/04 00:24:51;;;;;;;1.95;1.13;;;21.80;76.40;21.60;99931.00;;;;337995;28;92667;-87
2021/06/04 00:25:03;;;;;;;2.50;1.35;;;21.80;76.40;21.70;99931.00;;;;341242;28;94928;-87
2021/06/04 00:25:15;;;;;;;2.28;1.20;;;21.80;76.30;21.70;99932.00;;;;341434;28;97613;-87
2021/06/04 00:25:27;;;;;;;2.40;1.13;;;21.80;76.30;21.70;99933.00;;;;339919;28;93103;-87
2021/06/04 00:25:38;;;;;;;2.70;1.27;;;21.80;76.20;21.80;99927.00;;;;341076;28;91426;-86
2021/06/04 00:25:50;;;;;;;2.75;1.27;;;21.80;76.40;21.70;99929.00;;;;340032;28;93878;-87
2021/06/04 00:26:03;;;;;;;2.70;1.20;;;21.80;76.60;21.60;99928.00;;;;339662;28;92416;-87
2021/06/04 00:26:16;;;;;;;3.40;1.05;;;21.80;76.50;21.70;99933.00;;;;342661;28;94183;-87
2021/06/04 00:26:28;;;;;;;4.25;1.00;;;21.80;76.40;21.70;99937.00;;;;338284;28;91963;-87
2021/06/04 00:26:42;;;;;;;4.18;1.17;;;21.80;76.40;21.60;99934.00;;;;338671;28;94416;-87
2021/06/04 00:26:54;;;;;;;3.05;1.30;;;21.80;77.10;21.70;99936.00;;;;339611;28;92199;-87
2021/06/04 00:27:07;;;;;;;2.67;1.33;;;21.80;76.60;21.60;99933.00;;;;337377;28;94401;-87
2021/06/04 00:27:19;;;;;;;2.38;1.40;;;21.80;76.60;21.50;99938.00;;;;337164;28;92000;-87
2021/06/04 00:27:31;;;;;;;3.72;1.30;;;21.80;76.60;21.60;99933.00;;;;341172;28;97377;-87
2021/06/04 00:27:43;;;;;;;3.47;1.17;;;21.80;76.40;21.70;99935.00;;;;342317;28;91359;-86
2021/06/04 00:27:55;;;;;;;2.95;1.13;;;21.80;76.50;21.70;99934.00;;;;339534;28;92957;-85
2021/06/04 00:28:07;;;;;;;3.50;1.25;;;21.80;76.40;21.80;99927.00;;;;337658;28;92109;-86
2021/06/04 00:28:19;;;;;;;5.30;2.10;;;21.80;76.40;21.70;99935.00;;;;340616;28;95989;-87
2021/06/04 00:28:31;;;;;;;5.30;1.98;;;21.80;76.50;21.70;99931.00;;;;341542;28;91947;-87
2021/06/04 00:28:42;;;;;;;4.43;1.50;;;21.80;76.50;21.70;99936.00;;;;337376;28;93876;-87
2021/06/04 00:28:54;;;;;;;3.22;0.98;;;21.80;76.40;21.70;99932.00;;;;342355;28;91966;-87
2021/06/04 00:29:06;;;;;;;2.88;1.08;;;21.80;76.40;21.50;99929.00;;;;340181;28;94252;-87
2021/06/04 00:29:18;;;;;;;2.30;1.10;;;21.80;76.50;21.50;99924.00;;;;341120;28;92206;-87
2021/06/04 00:29:30;;;;;;;2.38;1.05;;;21.80;76.40;21.50;99923.00;;;;342595;28;94230;-87
2021/06/04 00:29:43;;;;;;;2.00;1.00;;;21.80;76.30;21.40;99922.00;;;;339855;28;91239;-87
2021/06/04 00:29:55;;;;;;;2.70;1.00;;;21.80;76.30;21.40;99924.00;;;;339858;28;97346;-87
2021/06/04 00:30:08;;;;;;;2.83;1.15;;;21.80;76.40;21.40;99928.00;;;;342629;28;91868;-87
2021/06/04 00:30:21;;;;;;;1.80;0.90;;;21.80;76.40;21.40;99929.00;;;;341246;28;94222;-87
2021/06/04 00:30:33;;;;;;;1.75;0.95;;;21.80;76.60;21.60;99929.00;;;;338177;28;91924;-87
2021/06/04 00:30:45;;;;;;;1.70;1.10;;;21.80;76.40;21.70;99926.00;;;;338624;28;94185;-87
2021/06/04 00:30:57;;;;;;;2.05;1.17;;;21.80;76.40;21.60;99935.00;;;;339056;28;92646;-87
2021/06/04 00:31:09;;;;;;;3.40;1.23;;;21.80;76.50;21.70;99930.00;;;;336720;28;94531;-87
2021/06/04 00:31:21;;;;;;;3.25;1.33;;;21.80;76.60;21.70;99930.00;;;;338462;28;91931;-87
2021/06/04 00:31:33;;;;;;;3.35;1.42;;;21.80;76.70;21.60;99928.00;;;;340607;28;96582;-88
2021/06/04 00:31:47;;;;;;;2.88;1.48;;;21.80;76.50;21.60;99922.00;;;;339801;28;91208;-87
2021/06/04 00:31:59;;;;;;;2.30;1.30;;;21.70;76.50;21.70;99933.00;;;;339555;28;95794;-87
2021/06/04 00:32:12;;;;;;;2.78;1.30;;;21.80;76.50;21.70;99925.00;;;;335877;28;91978;-87
2021/06/04 00:32:24;;;;;;;3.00;1.33;;;21.80;76.40;21.80;99922.00;;;;337211;28;95791;-87
2021/06/04 00:32:36;;;;;;;4.43;1.55;;;21.80;76.40;21.80;99923.00;;;;338481;28;92150;-87
2021/06/04 00:32:48;;;;;;;4.20;1.60;;;21.80;76.30;21.80;99923.00;;;;338499;28;94491;-87
2021/06/04 00:33:00;;;;;;;4.03;1.60;;;21.80;76.40;21.70;99928.00;;;;338554;28;91152;-87
2021/06/04 00:33:12;;;;;;;3.17;1.67;;;21.80;76.80;21.80;99925.00;;;;340033;28;93836;-87
2021/06/04 00:33:24;;;;;;;2.70;1.63;;;21.80;76.60;21.80;99925.00;;;;341125;28;92003;-87
2021/06/04 00:33:36;;;;;;;3.10;1.55;;;21.80;76.60;21.70;99925.00;;;;339911;28;94210;-88
2021/06/04 00:33:48;;;;;;;2.70;1.20;;;21.80;76.40;21.70;99926.00;;;;339821;28;91219;-87
2021/06/04 00:34:00;;;;;;;1.85;1.10;;;21.80;76.30;21.60;99926.00;;;;338969;28;93741;-87
2021/06/04 00:34:13;;;;;;;5.93;1.33;;;21.80;76.70;21.50;99921.00;;;;338249;28;92006;-87
2021/06/04 00:34:25;;;;;;;6.05;1.38;;;21.80;76.80;21.60;99927.00;;;;337318;28;94456;-88
2021/06/04 00:34:37;;;;;;;5.80;1.20;;;21.80;76.60;21.80;99928.00;;;;339856;28;91930;-87
2021/06/04 00:34:50;;;;;;;1.75;1.00;;;21.80;76.40;21.80;99926.00;;;;339831;28;96079;-86
2021/06/04 00:35:04;;;;;;;2.00;1.00;;;21.80;76.50;21.60;99925.00;;;;340182;28;92426;-87
2021/06/04 00:35:16;;;;;;;2.30;1.20;;;21.80;76.50;21.60;99924.00;;;;339730;28;96416;-87
2021/06/04 00:35:28;;;;;;;4.78;1.23;;;21.80;77.00;21.70;99929.00;;;;339918;28;91873;-87
2021/06/04 00:35:41;;;;;;;5.10;1.48;;;21.80;76.50;21.60;99930.00;;;;341273;28;94621;-87
2021/06/04 00:35:52;;;;;;;3.13;1.17;;;21.80;76.60;21.70;99934.00;;;;338488;28;92193;-87
2021/06/04 00:36:05;;;;;;;2.58;1.10;;;21.80;76.50;21.80;99926.00;;;;341353;28;92412;-87
2021/06/04 00:36:17;;;;;;;2.53;0.98;;;21.80;76.50;21.80;99933.00;;;;340903;28;92198;-87
2021/06/04 00:36:29;;;;;;;3.00;1.00;;;21.80;76.60;21.80;99925.00;;;;341018;28;95919;-87
2021/06/04 00:36:42;;;;;;;4.15;1.20;;;21.80;76.60;21.80;99926.00;;;;339830;28;92063;-87
2021/06/04 00:36:54;;;;;;;4.15;1.40;;;21.80;76.50;21.60;99940.00;;;;339790;28;94290;-85
2021/06/04 00:37:06;;;;;;;4.43;1.50;;;21.80;76.40;21.80;99933.00;;;;337903;28;92107;-88
2021/06/04 00:37:19;;;;;;;2.58;1.15;;;21.80;76.40;21.80;99934.00;;;;338387;28;93931;-87
2021/06/04 00:37:31;;;;;;;2.53;1.20;;;21.80;76.30;21.80;99934.00;;;;337028;28;92204;-86
2021/06/04 00:37:43;;;;;;;1.77;1.02;;;21.90;76.40;21.90;99938.00;;;;339893;28;96008;-87
2021/06/04 00:37:54;;;;;;;2.28;1.20;;;21.90;76.50;21.90;99933.00;;;;342424;28;91296;-87
2021/06/04 00:38:07;;;;;;;2.47;1.33;;;21.90;76.70;21.80;99934.00;;;;341375;28;93936;-87
2021/06/04 00:38:18;;;;;;;2.33;1.30;;;21.90;76.50;21.60;99934.00;;;;342534;28;91964;-87
2021/06/04 00:38:30;;;;;;;2.60;1.40;;;21.90;76.40;21.80;99936.00;;;;340046;28;93273;-87
2021/06/04 00:38:42;;;;;;;2.70;1.20;;;21.90;76.40;21.70;99936.00;;;;342466;28;91904;-87
2021/06/04 00:38:54;;;;;;;2.80;1.25;;;21.90;76.40;21.70;99932.00;;;;340835;28;93739;-86
2021/06/04 00:39:07;;;;;;;3.08;1.13;;;21.80;76.20;21.60;99930.00;;;;339872;28;91837;-86
2021/06/04 00:39:21;;;;;;;5.65;1.40;;;21.80;76.40;21.80;99934.00;;;;342689;28;94467;-86
2021/06/04 00:39:36;;;;;;;4.88;1.17;;;21.80;76.30;21.70;99931.00;;;;339730;28;91947;-87
2021/06/04 00:39:48;;;;;;;3.40;1.00;;;21.90;76.40;21.80;99932.00;;;;342556;28;93640;-86
2021/06/04 00:40:00;;;;;;;3.20;0.90;;;21.90;76.30;21.80;99930.00;;;;338389;28;91177;-86
2021/06/04 00:40:25;;;;;;;2.20;0.90;;;21.90;76.20;21.80;99934.00;;;;339446;28;93756;-87
2021/06/04 00:40:42;;;;;;;1.80;1.15;;;21.90;76.20;21.80;99935.00;;;;337126;28;91999;-87
2021/06/04 00:40:59;;;;;;;2.78;1.35;;;21.90;76.20;21.70;99928.00;;;;340983;28;94624;-87
2021/06/04 00:41:17;;;;;;;3.13;1.17;;;21.90;76.10;21.80;99933.00;;;;338511;28;91899;-86
2021/06/04 00:41:48;;;;;;;2.38;0.90;;;21.90;76.30;21.80;99931.00;;;;338551;28;93819;-87
2021/06/04 00:42:17;;;;;;;3.95;1.25;;;21.90;76.30;21.80;99932.00;;;;339753;28;92155;-87
2021/06/04 00:42:33;;;;;;;2.78;1.13;;;21.90;76.00;21.80;99932.00;;;;338642;28;94738;-87
2021/06/04 00:42:45;;;;;;;3.08;1.45;;;22.00;76.00;21.70;99931.00;;;;336983;28;91935;-87
2021/06/04 00:42:58;;;;;;;3.13;1.60;;;21.90;76.10;21.70;99929.00;;;;336397;28;93836;-86
2021/06/04 00:43:10;;;;;;;3.33;1.58;;;21.90;76.10;21.70;99933.00;;;;339337;28;91286;-87
2021/06/04 00:43:23;;;;;;;3.00;1.20;;;21.90;76.00;21.80;99937.00;;;;341328;28;93411;-87
2021/06/04 00:43:35;;;;;;;2.20;1.05;;;22.00;75.90;21.90;99939.00;;;;338073;28;92140;-87
2021/06/04 00:43:48;;;;;;;2.10;0.90;;;21.90;75.90;21.80;99926.00;;;;341228;28;97467;-87
2021/06/04 00:43:59;;;;;;;2.63;1.08;;;22.00;76.00;21.80;99937.00;;;;338222;28;92067;-86
2021/06/04 00:44:12;;;;;;;3.28;1.33;;;21.90;75.90;21.70;99930.00;;;;339878;28;94455;-86
2021/06/04 00:44:24;;;;;;;3.35;1.52;;;22.00;75.90;21.90;99941.00;;;;338399;28;92066;-87
2021/06/04 00:44:36;;;;;;;3.63;1.48;;;22.00;75.90;21.90;99939.00;;;;338513;28;96635;-87
2021/06/04 00:44:50;;;;;;;3.03;1.30;;;22.00;75.90;21.80;99933.00;;;;337145;28;92369;-87
2021/06/04 00:45:07;;;;;;;3.13;0.85;;;22.00;76.00;21.90;99934.00;;;;337093;28;97249;-87
2021/06/04 00:45:24;;;;;;;3.00;0.80;;;22.00;75.90;21.90;99930.00;;;;338434;28;91051;-86
2021/06/04 00:45:42;;;;;;;1.75;1.10;;;22.00;75.90;21.90;99932.00;;;;337207;28;92435;-86
2021/06/04 00:45:55;;;;;;;3.17;1.20;;;22.00;75.80;21.90;99940.00;;;;338513;28;91899;-87
2021/06/04 00:46:08;;;;;;;3.80;1.00;;;22.00;75.80;22.00;99931.00;;;;342275;28;93133;-87
2021/06/04 00:46:20;;;;;;;2.95;1.25;;;22.00;75.90;22.00;99937.00;;;;338209;28;92002;-86
2021/06/04 00:46:32;;;;;;;4.45;1.55;;;22.00;75.80;22.00;99933.00;;;;341881;28;94403;-87
2021/06/04 00:46:44;;;;;;;4.20;1.55;;;22.00;75.80;22.00;99932.00;;;;342638;28;91919;-87
2021/06/04 00:46:56;;;;;;;2.28;1.15;;;22.00;75.70;22.00;99940.00;;;;342655;28;93824;-87
2021/06/04 00:47:08;;;;;;;2.65;1.15;;;22.00;75.60;22.00;99934.00;;;;343680;28;91987;-87
2021/06/04 00:47:20;;;;;;;4.35;1.52;;;22.00;75.60;22.00;99932.00;;;;339930;28;97194;-87
2021/06/04 00:47:32;;;;;;;4.50;1.52;;;22.00;75.60;22.00;99940.00;;;;339637;28;91183;-87
2021/06/04 00:47:44;;;;;;;2.67;1.25;;;22.00;75.60;22.00;99943.00;;;;339967;28;93677;-87
2021/06/04 00:47:56;;;;;;;3.35;1.20;;;22.00;75.60;21.80;99937.00;;;;339890;28;91924;-87
2021/06/04 00:48:08;;;;;;;3.00;1.02;;;22.10;75.70;22.00;99933.00;;;;341339;28;93533;-87
2021/06/04 00:48:20;;;;;;;3.20;1.00;;;22.00;75.60;21.90;99935.00;;;;338570;28;92114;-87
2021/06/04 00:48:32;;;;;;;2.38;1.00;;;22.00;75.50;21.80;99928.00;;;;341362;28;94613;-87
2021/06/04 00:48:44;;;;;;;2.20;1.15;;;22.00;75.60;21.80;99934.00;;;;342438;28;92260;-87
2021/06/04 00:48:55;;;;;;;2.28;1.10;;;22.00;75.50;22.00;99933.00;;;;340951;28;94240;-87
2021/06/04 00:49:08;;;;;;;2.63;1.08;;;22.00;75.70;22.00;99935.00;;;;341307;28;91188;-87
2021/06/04 00:49:20;;;;;;;2.55;0.90;;;22.00;76.00;22.00;99939.00;;;;338567;28;93490;-87
2021/06/04 00:49:32;;;;;;;2.53;0.98;;;22.00;75.90;22.10;99939.00;;;;341824;28;91355;-87
2021/06/04 00:49:44;;;;;;;3.50;1.42;;;22.00;75.70;22.10;99942.00;;;;342607;28;93497;-87
2021/06/04 00:49:56;;;;;;;4.05;1.58;;;22.00;75.60;22.00;99935.00;;;;342642;28;91266;-87
2021/06/04 00:50:11;;;;;;;3.78;1.27;;;22.00;76.30;22.00;99938.00;;;;341216;28;94414;-86
2021/06/04 00:50:31;;;;;;;2.85;1.08;;;22.00;75.80;21.90;99938.00;;;;339871;28;91901;-87
2021/06/04 00:50:50;;;;;;;3.42;1.20;;;22.00;75.60;21.80;99937.00;;;;342380;28;94623;-87
2021/06/04 00:51:25;;;;;;;5.07;1.45;;;22.00;75.60;21.60;99938.00;;;;339826;28;91924;-87
2021/06/04 00:51:51;;;;;;;1.90;0.85;;;22.00;75.70;21.70;99937.00;;;;341245;28;94237;-87
2021/06/04 00:52:08;;;;;;;3.03;1.17;;;22.00;76.10;21.50;99937.00;;;;339693;28;92095;-87
2021/06/04 00:52:26;;;;;;;4.20;1.30;;;22.00;75.80;21.80;99937.00;;;;341083;28;93102;-87
2021/06/04 00:52:38;;;;;;;3.92;1.25;;;22.00;75.80;21.70;99939.00;;;;342566;28;90500;-87
2021/06/04 00:52:49;;;;;;;4.35;1.25;;;22.00;75.90;21.70;99932.00;;;;341345;28;93627;-86
2021/06/04 00:53:02;;;;;;;3.25;0.90;;;21.90;75.70;21.50;99937.00;;;;340214;28;91036;-87
2021/06/04 00:53:15;;;;;;;2.05;0.93;;;21.90;75.70;21.60;99939.00;;;;343926;28;95328;-87
2021/06/04 00:53:26;;;;;;;2.28;1.13;;;21.90;75.60;21.80;99937.00;;;;341155;28;91986;-87
2021/06/04 00:53:38;;;;;;;2.95;1.20;;;21.90;75.60;21.70;99936.00;;;;342455;28;93539;-86
2021/06/04 00:53:51;;;;;;;2.58;1.05;;;21.90;76.00;21.70;99935.00;;;;339950;28;91826;-87
2021/06/04 00:54:04;;;;;;;2.38;1.20;;;21.90;75.90;21.70;99940.00;;;;342661;28;94254;-87
2021/06/04 00:54:17;;;;;;;2.88;1.25;;;21.90;76.10;21.60;99934.00;;;;342401;28;92081;-87
2021/06/04 00:54:29;;;;;;;3.83;1.40;;;21.90;76.00;21.60;99938.00;;;;344163;28;94233;-86
2021/06/04 00:54:41;;;;;;;4.45;1.70;;;21.90;76.00;21.60;99944.00;;;;343937;28;91086;-86
2021/06/04 00:54:55;;;;;;;3.78;1.48;;;21.90;75.90;21.50;99941.00;;;;341343;28;93360;-87
2021/06/04 00:55:14;;;;;;;3.63;1.48;;;21.90;76.10;21.70;99942.00;;;;343377;28;91987;-87
2021/06/04 00:55:26;;;;;;;3.17;1.05;;;21.90;76.10;21.60;99942.00;;;;341179;28;94681;-87
2021/06/04 00:55:38;;;;;;;2.70;1.02;;;21.90;76.10;21.70;99942.00;;;;342405;28;92465;-87
2021/06/04 00:55:50;;;;;;;2.08;1.17;;;21.80;76.10;21.70;99933.00;;;;342715;28;94193;-87
2021/06/04 00:56:03;;;;;;;3.35;1.30;;;21.90;76.00;21.70;99934.00;;;;339700;28;91952;-86
2021/06/04 00:56:15;;;;;;;3.45;1.20;;;21.90;75.90;21.60;99942.00;;;;343898;28;93451;-87
2021/06/04 00:56:27;;;;;;;4.25;1.15;;;21.90;76.00;21.50;99933.00;;;;343880;28;91953;-87
2021/06/04 00:56:40;;;;;;;2.97;1.10;;;21.80;75.90;21.50;99940.00;;;;341410;28;93620;-87
2021/06/04 00:56:52;;;;;;;2.70;1.20;;;21.80;76.00;21.60;99938.00;;;;339939;28;90590;-87
2021/06/04 00:57:04;;;;;;;2.58;1.02;;;21.80;76.00;21.70;99938.00;;;;343985;28;95041;-86
2021/06/04 00:57:16;;;;;;;2.80;1.00;;;21.80;76.00;21.70;99935.00;;;;338286;28;91971;-86
2021/06/04 00:57:28;;;;;;;2.60;0.90;;;21.80;76.00;21.60;99940.00;;;;343965;28;93118;-87
2021/06/04 00:57:40;;;;;;;2.83;1.17;;;21.80;75.90;21.60;99935.00;;;;339841;28;91909;-87
2021/06/04 00:57:52;;;;;;;2.85;1.23;;;21.80;76.00;21.60;99940.00;;;;341403;28;94089;-87
2021/06/04 00:58:04;;;;;;;3.40;1.40;;;21.80;75.90;21.70;99939.00;;;;342401;28;92095;-87
2021/06/04 00:58:19;;;;;;;3.40;1.60;;;21.80;76.10;21.70;99939.00;;;;342384;28;94164;-87
2021/06/04 00:58:36;;;;;;;2.35;1.55;;;21.80;76.10;21.70;99943.00;;;;343043;28;92187;-87
2021/06/04 00:58:48;;;;;;;3.35;1.10;;;21.80;76.10;21.70;99941.00;;;;342715;28;94343;-87
2021/06/04 00:59:01;;;;;;;4.65;1.10;;;21.80;76.20;21.70;99941.00;;;;340078;28;90721;-86
2021/06/04 00:59:13;;;;;;;3.83;1.08;;;21.80;76.20;21.80;99940.00;;;;339853;28;95499;-87
2021/06/04 00:59:34;;;;;;;1.85;0.88;;;21.80;76.10;21.70;99940.00;;;;339616;28;92145;-86
2021/06/04 00:59:46;;;;;;;3.22;1.33;;;21.80;76.30;21.80;99939.00;;;;340809;28;95154;-86
2021/06/04 01:00:03;;;;;;;3.92;1.42;;;21.80;76.10;21.90;99937.00;;;;341013;28;91274;-87
2021/06/04 01:00:39;;;;;;;3.72;1.25;;;21.80;76.10;21.50;99943.00;;;;339866;28;93596;-87
2021/06/04 01:00:53;;;;;;;6.15;1.45;;;21.80;76.10;21.60;99942.00;;;;339741;28;91163;-86
2021/06/04 01:01:05;;;;;;;5.97;1.23;;;21.80;76.00;21.80;99933.00;;;;341280;28;95988;-87
2021/06/04 01:01:19;;;;;;;3.25;0.98;;;21.80;75.90;21.80;99941.00;;;;342320;28;92083;-87
2021/06/04 01:01:32;;;;;;;2.45;1.10;;;21.80;76.20;21.70;99944.00;;;;342221;28;97212;-87
2021/06/04 01:01:45;;;;;;;2.70;1.08;;;21.80;76.20;21.60;99935.00;;;;341129;28;91353;-87
2021/06/04 01:01:57;;;;;;;3.38;1.10;;;21.80;76.20;21.60;99938.00;;;;342633;28;96512;-87
2021/06/04 01:02:12;;;;;;;4.00;1.50;;;21.80;76.20;21.50;99938.00;;;;338321;28;91928;-87
2021/06/04 01:02:24;;;;;;;3.70;1.48;;;21.80;76.10;21.50;99942.00;;;;342667;28;94755;-87
2021/06/04 01:02:37;;;;;;;2.13;1.13;;;21.80;76.00;21.50;99941.00;;;;341266;28;91963;-87
2021/06/04 01:02:49;;;;;;;1.95;1.27;;;21.80;76.00;21.50;99943.00;;;;341207;28;95969;-87
2021/06/04 01:03:02;;;;;;;2.20;1.17;;;21.80;75.90;21.70;99943.00;;;;341155;28;91976;-87
2021/06/04 01:03:14;;;;;;;2.70;0.98;;;21.80;75.90;21.70;99953.00;;;;341287;28;94398;-87